createdAt,value
2018-10-17T00:01:19.808Z,15.97
2018-10-17T00:03:46.970Z,16.47
2018-10-17T00:06:14.133Z,16.00
2018-10-17T00:08:41.372Z,14.83
2018-10-17T00:11:08.602Z,14.97
2018-10-17T00:13:35.691Z,16.30
2018-10-17T00:16:02.931Z,18.13
2018-10-17T00:18:30.092Z,15.40
2018-10-17T00:20:57.271Z,14.07
2018-10-17T00:23:24.837Z,16.77
2018-10-17T00:25:52.037Z,14.63
2018-10-17T00:28:19.212Z,17.53
2018-10-17T00:30:46.399Z,15.20
2018-10-17T00:33:13.680Z,15.00
2018-10-17T00:35:40.856Z,15.80
2018-10-17T00:38:08.010Z,15.27
2018-10-17T00:40:35.222Z,15.37
2018-10-17T00:43:02.454Z,15.20
2018-10-17T00:45:29.607Z,15.00
2018-10-17T00:47:56.763Z,16.47
2018-10-17T00:50:23.972Z,17.17
2018-10-17T00:52:51.167Z,14.70
2018-10-17T00:55:18.339Z,15.73
2018-10-17T00:57:45.480Z,14.37
2018-10-17T01:00:12.739Z,15.30
2018-10-17T01:02:39.883Z,14.33
2018-10-17T01:05:07.122Z,15.13
2018-10-17T01:07:34.231Z,15.53
2018-10-17T01:10:01.480Z,14.70
2018-10-17T01:12:28.703Z,14.77
2018-10-17T01:14:55.855Z,16.33
2018-10-17T01:17:23.048Z,16.33
2018-10-17T01:19:50.220Z,16.83
2018-10-17T01:22:17.408Z,18.40
2018-10-17T01:24:44.556Z,18.37
2018-10-17T01:27:11.743Z,16.80
2018-10-17T01:29:38.891Z,16.93
2018-10-17T01:32:06.385Z,16.77
2018-10-17T01:34:33.723Z,15.53
2018-10-17T01:37:00.956Z,15.53
2018-10-17T01:39:28.047Z,15.47
2018-10-17T01:41:55.236Z,16.40
2018-10-17T01:44:22.407Z,16.27
2018-10-17T01:46:49.594Z,17.10
2018-10-17T01:49:16.749Z,18.73
2018-10-17T01:51:43.912Z,18.37
2018-10-17T01:54:11.084Z,17.33
2018-10-17T01:56:38.336Z,19.23
2018-10-17T01:59:05.808Z,18.60
2018-10-17T02:01:34.051Z,17.60
2018-10-17T02:04:01.570Z,19.20
2018-10-17T02:06:28.731Z,17.67
2018-10-17T02:08:55.890Z,19.17
2018-10-17T02:11:23.149Z,16.73
2018-10-17T02:13:50.318Z,18.20
2018-10-17T02:16:17.471Z,18.67
2018-10-17T02:18:44.627Z,17.80
2018-10-17T02:21:11.775Z,16.93
2018-10-17T02:23:38.923Z,14.53
2018-10-17T02:26:06.112Z,14.80
2018-10-17T02:28:33.280Z,15.37
2018-10-17T02:31:00.596Z,15.97
2018-10-17T02:33:27.713Z,21.10
2018-10-17T02:35:54.868Z,16.37
2018-10-17T02:38:22.054Z,16.93
2018-10-17T02:40:49.214Z,15.93
2018-10-17T02:43:16.425Z,18.80
2018-10-17T02:45:43.539Z,18.23
2018-10-17T02:48:17.503Z,17.40
2018-10-17T02:50:44.653Z,17.63
2018-10-17T02:53:12.324Z,18.37
2018-10-17T02:55:39.509Z,17.87
2018-10-17T02:58:06.683Z,17.80
2018-10-17T03:00:33.835Z,20.17
2018-10-17T03:03:01.040Z,18.20
2018-10-17T03:05:28.191Z,18.03
2018-10-17T03:07:55.363Z,20.60
2018-10-17T03:10:22.535Z,17.63
2018-10-17T03:12:49.708Z,18.50
2018-10-17T03:15:16.872Z,20.87
2018-10-17T03:17:44.044Z,21.53
2018-10-17T03:20:11.261Z,19.73
2018-10-17T03:22:38.440Z,17.20
2018-10-17T03:25:06.165Z,16.67
2018-10-17T03:27:33.369Z,15.80
2018-10-17T03:30:00.549Z,18.33
2018-10-17T03:32:28.740Z,18.93
2018-10-17T03:34:55.927Z,19.90
2018-10-17T03:37:23.089Z,22.33
2018-10-17T03:39:50.245Z,23.40
2018-10-17T03:42:17.436Z,24.87
2018-10-17T03:44:44.608Z,20.47
2018-10-17T03:47:11.924Z,22.20
2018-10-17T03:49:39.038Z,21.17
2018-10-17T03:54:40.160Z,23.87
2018-10-17T03:57:07.339Z,21.40
2018-10-17T03:59:34.617Z,21.60
2018-10-17T04:02:01.696Z,23.23
2018-10-17T04:04:28.884Z,20.17
2018-10-17T04:06:56.099Z,21.30
2018-10-17T04:09:23.216Z,22.30
2018-10-17T04:11:50.390Z,22.47
2018-10-17T04:14:17.559Z,22.17
2018-10-17T04:16:44.768Z,23.87
2018-10-17T04:19:14.890Z,22.47
2018-10-17T04:21:41.956Z,20.93
2018-10-17T04:24:09.118Z,20.60
2018-10-17T04:26:36.313Z,23.20
2018-10-17T04:29:03.569Z,22.53
2018-10-17T04:31:30.694Z,22.10
2018-10-17T04:33:57.866Z,22.47
2018-10-17T04:36:31.756Z,22.47
2018-10-17T04:38:58.937Z,21.87
2018-10-17T04:41:26.097Z,23.13
2018-10-17T04:43:53.288Z,21.77
2018-10-17T04:46:20.467Z,23.67
2018-10-17T04:48:47.637Z,22.67
2018-10-17T04:51:14.789Z,22.90
2018-10-17T04:53:41.954Z,20.07
2018-10-17T04:56:09.105Z,24.60
2018-10-17T04:58:36.280Z,24.03
2018-10-17T05:01:03.461Z,23.13
2018-10-17T05:03:30.619Z,22.37
2018-10-17T05:05:57.779Z,22.63
2018-10-17T05:08:24.972Z,23.77
2018-10-17T05:10:52.130Z,25.97
2018-10-17T05:13:19.288Z,24.67
2018-10-17T05:15:46.643Z,25.23
2018-10-17T05:18:13.800Z,24.67
2018-10-17T05:20:40.970Z,25.43
2018-10-17T05:23:08.226Z,23.47
2018-10-17T05:25:35.359Z,22.80
2018-10-17T05:28:02.543Z,24.77
2018-10-17T05:30:29.723Z,25.03
2018-10-17T05:32:56.885Z,28.57
2018-10-17T05:35:24.048Z,25.80
2018-10-17T05:37:51.359Z,25.63
2018-10-17T05:40:18.628Z,25.00
2018-10-17T05:42:45.807Z,25.00
2018-10-17T05:45:13.000Z,22.47
2018-10-17T05:47:40.172Z,24.00
2018-10-17T05:50:07.361Z,21.43
2018-10-17T05:52:35.079Z,23.30
2018-10-17T05:55:02.300Z,24.47
2018-10-17T05:57:29.523Z,25.57
2018-10-17T05:59:56.710Z,23.87
2018-10-17T06:02:26.317Z,24.33
2018-10-17T06:04:53.897Z,25.20
2018-10-17T06:07:21.060Z,26.50
2018-10-17T06:09:48.355Z,23.77
2018-10-17T06:12:15.768Z,26.33
2018-10-17T06:14:42.940Z,26.87
2018-10-17T06:17:10.137Z,25.03
2018-10-17T06:19:37.267Z,25.97
2018-10-17T06:22:05.172Z,24.00
2018-10-17T06:24:32.341Z,26.33
2018-10-17T06:26:59.548Z,24.17
2018-10-17T06:29:26.714Z,23.13
2018-10-17T06:31:53.896Z,23.50
2018-10-17T06:34:21.129Z,27.17
2018-10-17T06:36:48.290Z,24.27
2018-10-17T06:39:15.431Z,23.83
2018-10-17T06:41:42.606Z,25.23
2018-10-17T06:44:09.799Z,24.73
2018-10-17T06:46:43.840Z,24.53
2018-10-17T06:49:11.097Z,23.03
2018-10-17T06:51:38.236Z,24.07
2018-10-17T06:54:05.680Z,25.53
2018-10-17T06:56:32.751Z,24.63
2018-10-17T06:58:59.967Z,22.93
2018-10-17T07:01:27.143Z,26.13
2018-10-17T07:03:54.287Z,22.97
2018-10-17T07:06:21.480Z,23.87
2018-10-17T07:11:29.869Z,26.13
2018-10-17T07:13:57.027Z,28.83
2018-10-17T07:16:24.914Z,26.07
2018-10-17T07:18:52.111Z,24.80
2018-10-17T07:21:19.232Z,22.97
2018-10-17T07:23:46.380Z,24.13
2018-10-17T07:26:13.559Z,22.97
2018-10-17T07:28:40.729Z,23.50
2018-10-17T07:31:08.220Z,23.57
2018-10-17T07:33:35.387Z,24.63
2018-10-17T07:36:09.409Z,25.10
2018-10-17T07:38:36.547Z,22.87
2018-10-17T07:41:03.779Z,26.50
2018-10-17T07:43:30.963Z,25.90
2018-10-17T07:45:58.131Z,25.20
2018-10-17T07:48:25.292Z,22.37
2018-10-17T07:50:52.584Z,23.13
2018-10-17T07:53:19.827Z,20.80
2018-10-17T07:55:53.732Z,23.23
2018-10-17T07:58:20.998Z,21.57
2018-10-17T08:00:49.340Z,22.37
2018-10-17T08:03:16.731Z,25.13
2018-10-17T08:05:43.992Z,24.30
2018-10-17T08:08:11.180Z,22.90
2018-10-17T08:10:38.500Z,22.67
2018-10-17T08:13:05.800Z,23.13
2018-10-17T08:15:33.113Z,24.23
2018-10-17T08:18:00.337Z,23.20
2018-10-17T08:20:27.467Z,23.27
2018-10-17T08:22:54.642Z,19.63
2018-10-17T08:25:21.875Z,23.70
2018-10-17T08:27:49.051Z,23.77
2018-10-17T08:30:16.301Z,23.97
2018-10-17T08:32:43.400Z,21.27
2018-10-17T08:35:10.623Z,20.03
2018-10-17T08:37:38.226Z,22.10
2018-10-17T08:40:05.614Z,23.13
2018-10-17T08:42:33.049Z,24.37
2018-10-17T08:45:00.426Z,20.93
2018-10-17T08:47:27.785Z,25.33
2018-10-17T08:49:55.245Z,22.20
2018-10-17T08:52:22.416Z,24.60
2018-10-17T08:54:49.562Z,22.57
2018-10-17T08:57:16.733Z,21.97
2018-10-17T08:59:43.918Z,22.27
2018-10-17T09:02:11.175Z,35.83
2018-10-17T09:04:38.251Z,66.30
2018-10-17T09:07:05.564Z,31.17
2018-10-17T09:09:33.563Z,26.27
2018-10-17T09:12:00.747Z,25.60
2018-10-17T09:14:27.908Z,23.73
2018-10-17T09:16:55.115Z,21.73
2018-10-17T09:19:22.367Z,20.87
2018-10-17T09:21:49.708Z,19.97
2018-10-17T09:24:23.404Z,22.93
2018-10-17T09:26:50.688Z,26.27
2018-10-17T09:29:17.852Z,28.40
2018-10-17T09:31:45.023Z,28.80
2018-10-17T09:34:12.254Z,26.20
2018-10-17T09:36:39.360Z,28.43
2018-10-17T09:39:08.040Z,26.43
2018-10-17T09:41:35.344Z,29.93
2018-10-17T09:44:02.532Z,30.07
2018-10-17T09:46:29.713Z,25.23
2018-10-17T09:48:56.913Z,23.73
2018-10-17T09:51:24.106Z,24.90
2018-10-17T09:53:51.323Z,41.47
2018-10-17T09:56:18.561Z,29.50
2018-10-17T09:58:45.795Z,32.30
2018-10-17T10:01:18.740Z,28.60
2018-10-17T10:03:45.923Z,24.27
2018-10-17T10:06:13.141Z,27.67
2018-10-17T10:08:40.251Z,23.83
2018-10-17T10:11:07.728Z,25.87
2018-10-17T10:13:35.213Z,24.43
2018-10-17T10:16:02.625Z,27.90
2018-10-17T10:18:29.775Z,23.63
2018-10-17T10:20:56.965Z,22.17
2018-10-17T10:23:24.134Z,27.20
2018-10-17T10:25:51.414Z,22.60
2018-10-17T10:28:18.795Z,27.83
2018-10-17T10:30:45.913Z,24.37
2018-10-17T10:33:13.093Z,20.93
2018-10-17T10:35:40.245Z,27.83
2018-10-17T10:38:07.409Z,22.03
2018-10-17T10:40:34.634Z,23.60
2018-10-17T10:43:01.969Z,22.23
2018-10-17T10:45:29.624Z,22.93
2018-10-17T10:47:56.774Z,20.70
2018-10-17T10:50:23.945Z,21.53
2018-10-17T10:52:51.169Z,19.13
2018-10-17T10:55:18.315Z,24.33
2018-10-17T10:57:45.479Z,21.07
2018-10-17T11:00:12.815Z,17.67
2018-10-17T11:02:39.892Z,19.17
2018-10-17T11:05:07.297Z,19.87
2018-10-17T11:07:34.424Z,18.53
2018-10-17T11:10:01.623Z,18.73
2018-10-17T11:12:28.788Z,17.50
2018-10-17T11:14:56.041Z,17.67
2018-10-17T11:17:23.309Z,19.37
2018-10-17T11:19:50.458Z,16.83
2018-10-17T11:22:17.632Z,16.90
2018-10-17T11:24:44.813Z,18.23
2018-10-17T11:27:12.048Z,15.83
2018-10-17T11:29:39.201Z,15.13
2018-10-17T11:32:06.397Z,16.67
2018-10-17T11:34:33.560Z,15.33
2018-10-17T11:37:00.732Z,18.27
2018-10-17T11:39:27.889Z,17.00
2018-10-17T11:41:55.057Z,16.13
2018-10-17T11:44:22.231Z,15.37
2018-10-17T11:46:49.391Z,17.10
2018-10-17T11:49:16.562Z,13.93
2018-10-17T11:51:43.735Z,13.97
2018-10-17T11:54:10.997Z,14.40
2018-10-17T11:56:38.163Z,15.97
2018-10-17T11:59:05.461Z,13.60
2018-10-17T12:01:32.517Z,12.57
2018-10-17T12:04:00.080Z,15.43
2018-10-17T12:06:27.223Z,13.77
2018-10-17T12:08:54.308Z,13.90
2018-10-17T12:11:21.521Z,13.20
2018-10-17T12:13:48.677Z,13.53
2018-10-17T12:16:15.838Z,12.90
2018-10-17T12:18:43.024Z,13.57
2018-10-17T12:23:44.394Z,12.43
2018-10-17T12:26:11.567Z,13.30
2018-10-17T12:28:38.872Z,13.13
2018-10-17T12:31:05.956Z,16.10
2018-10-17T12:33:33.176Z,13.80
2018-10-17T12:36:00.374Z,11.90
2018-10-17T12:38:27.545Z,13.97
2018-10-17T12:40:54.825Z,12.43
2018-10-17T12:43:21.918Z,12.20
2018-10-17T12:45:49.187Z,12.30
2018-10-17T12:48:16.284Z,11.90
2018-10-17T12:53:17.471Z,10.90
2018-10-17T12:55:44.592Z,11.37
2018-10-17T13:00:45.607Z,12.37
2018-10-17T13:03:12.911Z,15.30
2018-10-17T13:05:40.068Z,12.77
2018-10-17T13:08:07.257Z,11.10
2018-10-17T13:10:34.452Z,12.67
2018-10-17T13:13:08.463Z,11.07
2018-10-17T13:15:35.628Z,10.90
2018-10-17T13:18:02.816Z,12.77
2018-10-17T13:20:30.017Z,10.77
2018-10-17T13:22:57.222Z,10.90
2018-10-17T13:25:24.356Z,11.27
2018-10-17T13:27:51.524Z,13.07
2018-10-17T13:30:18.687Z,12.60
2018-10-17T13:32:45.872Z,11.00
2018-10-17T13:35:13.743Z,12.60
2018-10-17T13:37:40.847Z,11.30
2018-10-17T13:40:08.008Z,11.23
2018-10-17T13:42:35.176Z,11.03
2018-10-17T13:45:02.370Z,9.63
2018-10-17T13:47:29.563Z,9.57
2018-10-17T13:49:56.924Z,9.93
2018-10-17T13:52:24.283Z,9.43
2018-10-17T13:54:51.531Z,9.67
2018-10-17T13:57:18.640Z,10.27
2018-10-17T13:59:45.856Z,10.43
2018-10-17T14:02:12.993Z,9.53
2018-10-17T14:04:40.150Z,9.33
2018-10-17T14:07:07.378Z,9.17
2018-10-17T14:09:34.503Z,8.63
2018-10-17T14:12:01.917Z,9.13
2018-10-17T14:14:29.076Z,8.90
2018-10-17T14:16:56.236Z,8.87
2018-10-17T14:19:23.452Z,9.10
2018-10-17T14:21:50.606Z,8.70
2018-10-17T14:24:17.846Z,11.27
2018-10-17T14:26:51.786Z,8.33
2018-10-17T14:29:19.224Z,9.83
2018-10-17T14:31:46.464Z,8.87
2018-10-17T14:34:13.639Z,8.80
2018-10-17T14:36:40.891Z,7.93
2018-10-17T14:39:10.240Z,8.37
2018-10-17T14:41:37.370Z,10.77
2018-10-17T14:44:04.569Z,8.07
2018-10-17T14:46:31.773Z,9.00
2018-10-17T14:48:58.949Z,8.50
2018-10-17T14:51:26.103Z,8.83
2018-10-17T14:53:53.293Z,8.50
2018-10-17T14:56:20.542Z,8.33
2018-10-17T14:58:47.644Z,7.53
2018-10-17T15:01:14.820Z,8.47
2018-10-17T15:03:41.988Z,8.23
2018-10-17T15:06:09.150Z,8.10
2018-10-17T15:08:36.492Z,8.37
2018-10-17T15:11:04.270Z,9.27
2018-10-17T15:13:31.216Z,9.07
2018-10-17T15:15:58.387Z,7.93
2018-10-17T15:18:25.574Z,8.40
2018-10-17T15:20:52.746Z,9.23
2018-10-17T15:23:19.903Z,7.30
2018-10-17T15:25:47.904Z,8.17
2018-10-17T15:28:15.147Z,8.27
2018-10-17T15:30:42.316Z,8.53
2018-10-17T15:33:09.477Z,9.37
2018-10-17T15:35:36.652Z,9.93
2018-10-17T15:38:04.088Z,10.97
2018-10-17T15:40:31.260Z,11.47
2018-10-17T15:42:58.488Z,8.93
2018-10-17T15:47:59.742Z,8.53
2018-10-17T15:50:26.891Z,8.23
2018-10-17T15:52:54.111Z,8.37
2018-10-17T15:55:21.249Z,8.40
2018-10-17T15:57:48.473Z,8.50
2018-10-17T16:00:15.733Z,8.77
2018-10-17T16:02:42.938Z,8.10
2018-10-17T16:05:10.886Z,7.97
2018-10-17T16:07:38.119Z,9.03
2018-10-17T16:10:06.916Z,7.87
2018-10-17T16:12:34.072Z,8.20
2018-10-17T16:15:01.275Z,8.47
2018-10-17T16:17:28.580Z,8.90
2018-10-17T16:19:55.750Z,8.83
2018-10-17T16:22:22.906Z,8.53
2018-10-17T16:24:50.063Z,8.90
2018-10-17T16:27:17.256Z,9.40
2018-10-17T16:29:44.473Z,9.53
2018-10-17T16:32:11.706Z,8.97
2018-10-17T16:34:38.780Z,9.60
2018-10-17T16:37:06.040Z,9.73
2018-10-17T16:39:33.200Z,10.33
2018-10-17T16:42:00.456Z,9.30
2018-10-17T16:44:27.563Z,9.03
2018-10-17T16:46:54.748Z,9.30
2018-10-17T16:49:22.044Z,9.93
2018-10-17T16:51:49.254Z,9.83
2018-10-17T16:54:16.492Z,12.07
2018-10-17T16:56:43.619Z,9.80
2018-10-17T16:59:10.792Z,10.27
2018-10-17T17:01:37.963Z,9.13
2018-10-17T17:04:05.167Z,9.27
2018-10-17T17:06:32.424Z,9.60
2018-10-17T17:08:59.620Z,9.60
2018-10-17T17:11:26.791Z,9.60
2018-10-17T17:13:54.063Z,9.17
2018-10-17T17:16:21.257Z,8.60
2018-10-17T17:18:48.416Z,9.90
2018-10-17T17:21:15.820Z,9.03
2018-10-17T17:23:42.909Z,8.57
2018-10-17T17:26:10.100Z,8.93
2018-10-17T17:28:37.315Z,9.60
2018-10-17T17:31:04.904Z,8.60
2018-10-17T17:33:32.075Z,8.63
2018-10-17T17:35:59.455Z,8.90
2018-10-17T17:38:26.608Z,8.30
2018-10-17T17:40:53.871Z,8.73
2018-10-17T17:43:21.112Z,9.67
2018-10-17T17:45:48.510Z,9.23
2018-10-17T17:48:15.821Z,18.73
2018-10-17T17:50:43.068Z,14.43
2018-10-17T17:53:17.104Z,49.47
2018-10-17T17:55:44.703Z,55.73
2018-10-17T17:58:11.957Z,35.57
2018-10-17T18:00:39.136Z,21.50
2018-10-17T18:03:06.344Z,18.43
2018-10-17T18:05:33.740Z,13.67
2018-10-17T18:08:01.290Z,12.13
2018-10-17T18:10:28.472Z,11.27
2018-10-17T18:12:55.645Z,9.97
2018-10-17T18:15:22.820Z,9.97
2018-10-17T18:17:49.980Z,8.07
2018-10-17T18:20:17.144Z,8.53
2018-10-17T18:22:44.300Z,8.97
2018-10-17T18:25:11.512Z,8.93
2018-10-17T18:27:39.787Z,8.63
2018-10-17T18:30:06.919Z,8.60
2018-10-17T18:32:34.072Z,8.17
2018-10-17T18:35:01.275Z,8.33
2018-10-17T18:37:28.399Z,9.13
2018-10-17T18:39:55.608Z,9.13
2018-10-17T18:42:22.740Z,8.77
2018-10-17T18:44:49.921Z,8.87
2018-10-17T18:47:17.081Z,9.03
2018-10-17T18:49:44.259Z,10.00
2018-10-17T18:52:11.437Z,9.27
2018-10-17T18:54:38.612Z,9.93
2018-10-17T18:57:05.808Z,10.97
2018-10-17T18:59:32.943Z,11.07
2018-10-17T19:02:00.172Z,9.33
2018-10-17T19:04:27.348Z,9.60
2018-10-17T19:06:54.555Z,10.50
2018-10-17T19:09:21.808Z,9.63
2018-10-17T19:11:48.971Z,10.67
2018-10-17T19:14:16.131Z,8.97
2018-10-17T19:16:43.293Z,11.00
2018-10-17T19:19:10.457Z,8.73
2018-10-17T19:21:37.619Z,8.93
2018-10-17T19:24:05.223Z,9.13
2018-10-17T19:26:32.398Z,9.20
2018-10-17T19:28:59.568Z,10.27
2018-10-17T19:31:26.735Z,10.23
2018-10-17T19:33:53.892Z,11.17
2018-10-17T19:36:21.096Z,9.30
2018-10-17T19:38:48.329Z,10.57
2018-10-17T19:41:15.596Z,11.23
2018-10-17T19:43:42.767Z,16.93
2018-10-17T19:46:09.996Z,14.77
2018-10-17T19:48:37.150Z,13.23
2018-10-17T19:51:04.440Z,13.10
2018-10-17T19:53:31.608Z,11.73
2018-10-17T19:55:58.853Z,10.80
2018-10-17T19:58:26.003Z,10.23
2018-10-17T20:00:53.239Z,9.03
2018-10-17T20:03:20.436Z,9.67
2018-10-17T20:05:47.706Z,9.57
2018-10-17T20:08:14.892Z,9.70
2018-10-17T20:10:42.060Z,9.40
2018-10-17T20:13:09.291Z,10.10
2018-10-17T20:15:36.499Z,11.07
2018-10-17T20:18:04.119Z,11.97
2018-10-17T20:20:31.303Z,10.70
2018-10-17T20:22:58.461Z,10.47
2018-10-17T20:25:32.300Z,9.63
2018-10-17T20:27:59.521Z,10.10
2018-10-17T20:30:26.708Z,11.13
2018-10-17T20:32:53.894Z,10.30
2018-10-17T20:35:21.044Z,10.30
2018-10-17T20:37:48.212Z,9.53
2018-10-17T20:40:15.375Z,12.60
2018-10-17T20:42:42.574Z,9.37
2018-10-17T20:45:09.731Z,10.73
2018-10-17T20:47:36.962Z,10.87
2018-10-17T20:50:04.963Z,10.30
2018-10-17T20:52:32.236Z,11.83
2018-10-17T20:54:59.300Z,10.13
2018-10-17T20:57:27.504Z,10.70
2018-10-17T20:59:54.662Z,37.63
2018-10-17T21:02:21.859Z,33.03
2018-10-17T21:04:50.054Z,20.77
2018-10-17T21:07:17.219Z,14.07
2018-10-17T21:09:44.375Z,13.67
2018-10-17T21:12:11.553Z,12.20
2018-10-17T21:14:38.714Z,12.27
2018-10-17T21:17:05.923Z,12.43
2018-10-17T21:19:33.083Z,12.43
2018-10-17T21:22:00.255Z,11.07
2018-10-17T21:24:27.429Z,10.43
2018-10-17T21:26:54.669Z,11.17
2018-10-17T21:29:21.752Z,10.53
2018-10-17T21:31:48.939Z,11.90
2018-10-17T21:34:22.917Z,11.23
2018-10-17T21:36:50.096Z,11.00
2018-10-17T21:39:17.255Z,11.10
2018-10-17T21:41:44.502Z,10.93
2018-10-17T21:44:12.630Z,12.13
2018-10-17T21:46:40.099Z,11.50
2018-10-17T21:49:14.042Z,12.63
2018-10-17T21:51:41.231Z,12.90
2018-10-17T21:54:08.408Z,13.27
2018-10-17T21:56:35.869Z,12.37
2018-10-17T21:59:03.065Z,14.17
2018-10-17T22:01:30.223Z,12.17
2018-10-17T22:03:57.404Z,12.50
2018-10-17T22:06:24.569Z,13.67
2018-10-17T22:08:51.739Z,13.17
2018-10-17T22:11:18.922Z,12.87
2018-10-17T22:13:46.099Z,13.77
2018-10-17T22:16:13.260Z,14.13
2018-10-17T22:18:47.138Z,13.13
2018-10-17T22:21:14.352Z,12.60
2018-10-17T22:23:41.532Z,13.67
2018-10-17T22:26:08.967Z,13.57
2018-10-17T22:28:36.123Z,15.33
2018-10-17T22:31:03.414Z,12.80
2018-10-17T22:33:31.655Z,13.63
2018-10-17T22:35:58.810Z,15.17
2018-10-17T22:38:25.956Z,14.87
2018-10-17T22:40:53.164Z,16.07
2018-10-17T22:43:20.318Z,16.50
2018-10-17T22:45:47.526Z,13.60
2018-10-17T22:48:14.765Z,14.67
2018-10-17T22:50:41.934Z,15.47
2018-10-17T22:53:09.120Z,12.97
2018-10-17T22:55:36.308Z,14.97
2018-10-17T22:58:03.923Z,15.93
2018-10-17T23:00:31.157Z,12.53
2018-10-17T23:02:58.307Z,15.50
2018-10-17T23:05:25.481Z,13.27
2018-10-17T23:07:52.649Z,13.90
2018-10-17T23:10:19.815Z,14.03
2018-10-17T23:12:47.105Z,13.90
2018-10-17T23:15:15.136Z,13.37
2018-10-17T23:17:42.443Z,15.37
2018-10-17T23:20:09.885Z,13.40
2018-10-17T23:22:37.401Z,14.00
2018-10-17T23:25:05.551Z,14.20
2018-10-17T23:27:32.952Z,13.63
2018-10-17T23:30:00.176Z,13.90
2018-10-17T23:32:27.343Z,13.53
2018-10-17T23:34:54.535Z,15.00
2018-10-17T23:37:21.695Z,17.97
2018-10-17T23:39:48.911Z,14.67
2018-10-17T23:42:16.211Z,17.83
2018-10-17T23:44:43.285Z,17.40
2018-10-17T23:47:10.582Z,14.60
2018-10-17T23:49:37.753Z,14.27
2018-10-17T23:52:05.274Z,14.43
2018-10-17T23:54:32.465Z,13.57
2018-10-17T23:56:59.651Z,13.93
2018-10-17T23:59:27.263Z,14.67
